This is the latest recevied weather packets stored in our database for station/object SV2RCS-13. If no packets are shown the sender has not sent any weather packets the latest 10 day(s).
| Time | Temp. | Humidity | Pressure | Rain* | Wind** | Luminosity | Snow |
|---|---|---|---|---|---|---|---|
| 1777820820 | 12.22° C | 24% | 1016.3 hPa | - | - | - | - |
| 1777820221 | 12.22° C | 25% | 1016.3 hPa | - | - | - | - |
| 1777819619 | 12.22° C | 24% | 1016.4 hPa | - | - | - | - |
| 1777819020 | 12.22° C | 23% | 1016.5 hPa | - | - | - | - |
| 1777818419 | 12.22° C | 24% | 1016.4 hPa | - | - | - | - |
| 1777817820 | 12.22° C | 23% | 1016.5 hPa | - | - | - | - |
| 1777817219 | 12.22° C | 23% | 1016.4 hPa | - | - | - | - |
| 1777816620 | 12.22° C | 23% | 1016.6 hPa | - | - | - | - |
| 1777816020 | 13.33° C | 24% | 1016.2 hPa | - | - | - | - |
| 1777815420 | 12.22° C | 23% | 1016.6 hPa | - | - | - | - |
| 1777814819 | 12.22° C | 22% | 1016.3 hPa | - | - | - | - |
| 1777814219 | 13.33° C | 21% | 1016.1 hPa | - | - | - | - |
| 1777813620 | 12.78° C | 21% | 1016.3 hPa | - | - | - | - |
| 1777813020 | 12.78° C | 21% | 1016.3 hPa | - | - | - | - |
| 1777812419 | 12.22° C | 21% | 1016.4 hPa | - | - | - | - |
| 1777811819 | 12.22° C | 21% | 1016.3 hPa | - | - | - | - |
| 1777811220 | 12.22° C | 21% | 1016.5 hPa | - | - | - | - |
| 1777810620 | 12.22° C | 21% | 1016.6 hPa | - | - | - | - |
| 1777810020 | 12.22° C | 21% | 1016.4 hPa | - | - | - | - |
| 1777809420 | 12.78° C | 21% | 1016.5 hPa | - | - | - | - |
| 1777808820 | 12.22° C | 21% | 1016.6 hPa | - | - | - | - |
| 1777808219 | 12.78° C | 21% | 1016.7 hPa | - | - | - | - |
| 1777807619 | 12.78° C | 21% | 1016.6 hPa | - | - | - | - |
| 1777807019 | 12.78° C | 21% | 1016.8 hPa | - | - | - | - |
| 1777806422 | 12.78° C | 21% | 1016.7 hPa | - | - | - | - |
* Rain since midnight (hover to see other rain measurements)
** Current wind speed in m/s (hover to see current wind gust speed)